createdAt,value
2018-01-31T01:52:44.820Z,13.73
2018-01-31T01:55:12.275Z,10.67
2018-01-31T01:57:39.731Z,9.43
2018-01-31T02:00:07.180Z,13.93
2018-01-31T02:02:34.617Z,24.63
2018-01-31T02:05:02.055Z,10.07
2018-01-31T02:07:29.488Z,14.83
2018-01-31T02:09:56.941Z,11.40
2018-01-31T02:12:24.380Z,19.27
2018-01-31T02:14:51.891Z,10.67
2018-01-31T02:17:19.413Z,14.10
2018-01-31T02:19:46.860Z,13.93
2018-01-31T02:22:14.319Z,15.37
2018-01-31T02:24:42.088Z,16.87
2018-01-31T02:27:09.528Z,17.80
2018-01-31T02:29:36.984Z,11.57
2018-01-31T02:32:04.419Z,12.07
2018-01-31T02:34:31.915Z,12.60
2018-01-31T02:36:59.361Z,17.27
2018-01-31T02:39:35.431Z,16.50
2018-01-31T02:42:02.893Z,18.43
2018-01-31T02:44:30.599Z,15.30
2018-01-31T02:46:58.038Z,10.83
2018-01-31T02:49:25.488Z,11.43
2018-01-31T02:51:52.942Z,11.13
2018-01-31T02:54:20.409Z,11.73
2018-01-31T02:56:47.849Z,9.60
2018-01-31T02:59:15.408Z,23.03
2018-01-31T03:01:42.866Z,11.77
2018-01-31T03:04:10.312Z,14.40
2018-01-31T03:06:37.952Z,9.57
2018-01-31T03:09:05.492Z,12.10
2018-01-31T03:11:32.929Z,7.80
2018-01-31T03:14:00.355Z,9.20
2018-01-31T03:16:27.917Z,11.70
2018-01-31T03:18:55.363Z,9.07
2018-01-31T03:21:23.012Z,10.30
2018-01-31T03:23:50.443Z,10.03
2018-01-31T03:26:18.981Z,10.00
2018-01-31T03:28:46.436Z,12.97
2018-01-31T03:31:14.201Z,11.70
2018-01-31T03:33:41.640Z,12.77
2018-01-31T03:36:09.093Z,10.50
2018-01-31T03:38:36.523Z,11.10
2018-01-31T03:41:03.976Z,15.93
2018-01-31T03:43:32.309Z,7.67
2018-01-31T03:45:59.759Z,12.27
2018-01-31T03:48:27.208Z,15.07
2018-01-31T03:50:54.691Z,8.83
2018-01-31T03:53:22.239Z,8.50
2018-01-31T03:55:49.691Z,16.30
2018-01-31T03:58:17.340Z,12.33
2018-01-31T04:00:44.925Z,10.50
2018-01-31T04:03:12.366Z,10.87
2018-01-31T04:05:39.812Z,13.03
2018-01-31T04:08:07.291Z,13.50
2018-01-31T04:10:34.759Z,19.87
2018-01-31T04:13:02.698Z,26.50
2018-01-31T04:15:30.212Z,20.00
2018-01-31T04:17:57.644Z,16.17
2018-01-31T04:20:25.096Z,17.70
2018-01-31T04:22:52.660Z,16.60
2018-01-31T04:25:20.419Z,12.67
2018-01-31T04:27:47.885Z,16.63
2018-01-31T04:30:15.332Z,16.43
2018-01-31T04:32:42.981Z,14.27
2018-01-31T04:35:10.447Z,23.10
2018-01-31T04:37:37.925Z,17.37
2018-01-31T04:40:05.384Z,15.30
2018-01-31T04:42:32.936Z,15.50
2018-01-31T04:45:00.376Z,19.53
2018-01-31T04:47:27.852Z,12.93
2018-01-31T04:49:55.292Z,14.30
2018-01-31T04:52:22.747Z,14.17
2018-01-31T04:54:50.189Z,11.77
2018-01-31T04:57:17.637Z,15.13
2018-01-31T04:59:45.071Z,11.20
2018-01-31T05:02:12.523Z,13.27
2018-01-31T05:04:40.872Z,9.67
2018-01-31T05:07:08.347Z,14.37
2018-01-31T05:09:35.796Z,17.67
2018-01-31T05:12:03.263Z,17.63
2018-01-31T05:14:30.707Z,15.07
2018-01-31T05:16:58.153Z,12.90
2018-01-31T05:19:26.034Z,14.20
2018-01-31T05:21:53.811Z,17.00
2018-01-31T05:24:21.239Z,16.40
2018-01-31T05:26:48.711Z,13.33
2018-01-31T05:29:16.348Z,11.37
2018-01-31T05:31:43.795Z,14.47
2018-01-31T05:34:11.291Z,22.27
2018-01-31T05:36:38.849Z,13.47
2018-01-31T05:39:06.303Z,14.60
2018-01-31T05:41:33.751Z,18.90
2018-01-31T05:44:01.230Z,48.77
2018-01-31T05:46:28.684Z,15.27
2018-01-31T05:48:56.317Z,13.67
2018-01-31T05:51:23.826Z,13.47
2018-01-31T05:53:52.155Z,23.33
2018-01-31T05:56:19.739Z,13.13
2018-01-31T05:58:47.176Z,6.97
2018-01-31T06:01:14.632Z,11.50
2018-01-31T06:03:42.127Z,9.57
2018-01-31T06:06:09.564Z,7.70
2018-01-31T06:08:37.345Z,9.00
2018-01-31T06:11:04.784Z,7.80
2018-01-31T06:13:32.434Z,6.00
2018-01-31T06:16:00.027Z,10.60
2018-01-31T06:18:27.792Z,11.90
2018-01-31T06:20:55.232Z,8.50
2018-01-31T06:23:22.673Z,8.80
2018-01-31T06:25:50.160Z,10.37
2018-01-31T06:28:17.610Z,7.93
2018-01-31T06:30:45.045Z,10.20
2018-01-31T06:33:12.488Z,8.93
2018-01-31T06:35:39.988Z,10.50
2018-01-31T06:38:07.763Z,11.03
2018-01-31T06:40:35.216Z,8.00
2018-01-31T06:43:02.976Z,12.63
2018-01-31T06:45:30.412Z,11.70
2018-01-31T06:47:57.856Z,7.27
2018-01-31T06:50:25.351Z,11.00
2018-01-31T06:52:52.804Z,8.43
2018-01-31T06:55:20.268Z,8.37
2018-01-31T06:57:47.715Z,9.50
2018-01-31T07:00:15.361Z,9.57
2018-01-31T07:02:42.840Z,10.30
2018-01-31T07:05:10.264Z,7.20
2018-01-31T07:07:37.775Z,7.33
2018-01-31T07:10:05.329Z,7.60
2018-01-31T07:12:33.089Z,7.77
2018-01-31T07:15:00.551Z,6.67
2018-01-31T07:17:28.303Z,6.70
2018-01-31T07:19:55.731Z,6.80
2018-01-31T07:22:23.177Z,4.40
2018-01-31T07:24:50.611Z,6.20
2018-01-31T07:27:18.142Z,4.60
2018-01-31T07:29:45.596Z,7.17
2018-01-31T07:32:13.032Z,6.40
2018-01-31T07:34:40.468Z,6.23
2018-01-31T07:37:07.976Z,6.37
2018-01-31T07:39:35.608Z,6.77
2018-01-31T07:42:03.037Z,5.00
2018-01-31T07:44:31.252Z,7.17
2018-01-31T07:46:58.688Z,25.40
2018-01-31T07:49:26.188Z,5.77
2018-01-31T07:51:53.820Z,4.47
2018-01-31T07:54:21.277Z,10.80
2018-01-31T07:56:48.744Z,5.47
2018-01-31T07:59:16.188Z,8.07
2018-01-31T08:01:43.788Z,10.07
2018-01-31T08:04:11.239Z,8.13
2018-01-31T08:06:38.671Z,4.33
2018-01-31T08:09:06.128Z,5.90
2018-01-31T08:11:33.563Z,5.83
2018-01-31T08:14:01.068Z,11.23
2018-01-31T08:16:28.529Z,5.60
2018-01-31T08:18:56.296Z,6.90
2018-01-31T08:21:23.968Z,16.83
2018-01-31T08:23:51.516Z,7.73
2018-01-31T08:26:18.946Z,4.60
2018-01-31T08:28:46.395Z,5.20
2018-01-31T08:31:13.833Z,8.07
2018-01-31T08:33:41.349Z,4.37
2018-01-31T08:36:08.783Z,3.30
2018-01-31T08:38:36.268Z,4.30
2018-01-31T08:41:04.027Z,7.20
2018-01-31T08:43:31.675Z,5.27
2018-01-31T08:45:59.124Z,11.60
2018-01-31T08:48:26.620Z,4.77
2018-01-31T08:50:54.828Z,4.83
2018-01-31T08:53:23.161Z,5.93
2018-01-31T08:55:50.596Z,10.00
2018-01-31T08:58:18.028Z,3.27
2018-01-31T09:00:45.533Z,3.17
2018-01-31T09:03:12.970Z,3.93
2018-01-31T09:05:40.628Z,4.23
2018-01-31T09:08:08.216Z,6.20
2018-01-31T09:10:35.705Z,3.77
2018-01-31T09:13:03.123Z,4.37
2018-01-31T09:15:30.576Z,2.83
2018-01-31T09:17:58.022Z,10.63
2018-01-31T09:20:25.508Z,3.83
2018-01-31T09:22:52.964Z,3.10
2018-01-31T09:25:20.412Z,7.97
2018-01-31T09:27:47.851Z,2.40
2018-01-31T09:30:15.341Z,5.20
2018-01-31T09:32:42.796Z,5.80
2018-01-31T09:35:10.250Z,2.57
2018-01-31T09:37:37.884Z,4.03
2018-01-31T09:40:05.332Z,8.00
2018-01-31T09:42:32.855Z,5.50
2018-01-31T09:45:00.293Z,6.17
2018-01-31T09:47:27.752Z,4.97
2018-01-31T09:49:55.216Z,4.33
2018-01-31T09:52:22.743Z,4.97
2018-01-31T09:54:50.189Z,7.90
2018-01-31T09:57:17.621Z,6.27
2018-01-31T09:59:45.068Z,7.50
2018-01-31T10:02:12.508Z,10.23
2018-01-31T10:04:39.952Z,8.23
2018-01-31T10:07:07.450Z,3.13
2018-01-31T10:09:34.968Z,2.70
2018-01-31T10:12:02.432Z,7.43
2018-01-31T10:14:30.193Z,3.13
2018-01-31T10:16:57.668Z,4.23
2018-01-31T10:19:25.095Z,2.27
2018-01-31T10:21:52.749Z,2.70
2018-01-31T10:24:20.229Z,2.90
2018-01-31T10:26:47.668Z,3.83
2018-01-31T10:29:15.245Z,2.83
2018-01-31T10:31:42.688Z,3.77
2018-01-31T10:34:10.115Z,2.33
2018-01-31T10:36:37.628Z,6.90
2018-01-31T10:39:05.067Z,11.60
2018-01-31T10:41:32.527Z,1.93
2018-01-31T10:43:59.968Z,1.80
2018-01-31T10:46:27.421Z,6.40
2018-01-31T10:48:54.857Z,1.73
2018-01-31T10:51:22.305Z,5.40
2018-01-31T10:58:45.601Z,2.27
2018-01-31T11:01:13.124Z,2.73
2018-01-31T11:03:40.756Z,2.47
2018-01-31T11:06:08.204Z,1.47
2018-01-31T11:08:35.708Z,2.50
2018-01-31T11:11:03.264Z,0.93
2018-01-31T11:13:30.688Z,3.27
2018-01-31T11:15:58.176Z,1.83
2018-01-31T11:18:25.636Z,2.73
2018-01-31T11:20:53.084Z,2.70
2018-01-31T11:23:20.553Z,3.10
2018-01-31T11:25:48.104Z,8.53
2018-01-31T11:28:15.552Z,3.90
2018-01-31T11:30:43.242Z,2.47
2018-01-31T11:33:10.787Z,8.70
2018-01-31T11:35:38.365Z,2.03
2018-01-31T11:38:06.559Z,2.30
2018-01-31T11:40:34.245Z,4.50
2018-01-31T11:43:01.671Z,3.13
2018-01-31T11:45:29.124Z,3.47
2018-01-31T11:47:56.560Z,3.60
2018-01-31T11:50:23.996Z,3.63
2018-01-31T11:52:51.449Z,3.10
2018-01-31T11:55:18.940Z,5.07
2018-01-31T11:57:46.377Z,2.93
2018-01-31T12:00:13.807Z,4.90
2018-01-31T12:02:41.300Z,3.53
2018-01-31T12:05:08.778Z,1.90
2018-01-31T12:07:36.324Z,3.37
2018-01-31T12:10:03.779Z,11.37
2018-01-31T12:12:42.917Z,10.93
2018-01-31T12:15:22.356Z,5.37
2018-01-31T12:17:49.787Z,7.93
2018-01-31T12:20:40.009Z,3.77
2018-01-31T12:23:19.057Z,4.13
2018-01-31T12:26:12.088Z,4.90
2018-01-31T12:29:01.985Z,3.93
2018-01-31T12:31:41.080Z,2.87
2018-01-31T12:34:20.539Z,3.50
2018-01-31T12:36:59.584Z,1.67
2018-01-31T12:39:26.820Z,0.80
2018-01-31T12:41:53.980Z,1.07
2018-01-31T12:44:20.944Z,0.70
2018-01-31T12:47:00.188Z,2.30
2018-01-31T12:49:39.457Z,0.70
2018-01-31T12:52:27.679Z,2.20
2018-01-31T12:55:07.012Z,1.17
2018-01-31T12:57:57.824Z,1.43
2018-01-31T13:00:37.744Z,2.33
2018-01-31T13:03:17.000Z,1.90
2018-01-31T13:05:56.960Z,1.50
2018-01-31T13:08:36.104Z,2.33
2018-01-31T13:11:29.302Z,0.97
2018-01-31T13:14:08.453Z,1.77
2018-01-31T13:16:47.747Z,20.80
2018-01-31T13:19:17.823Z,1.00
2018-01-31T13:21:57.082Z,1.10
2018-01-31T13:24:36.579Z,1.00
2018-01-31T13:27:15.900Z,1.07
2018-01-31T13:29:55.140Z,1.00
2018-01-31T13:32:34.465Z,5.03
2018-01-31T13:35:13.812Z,0.80
2018-01-31T13:37:58.696Z,2.20
2018-01-31T13:40:38.220Z,1.73
2018-01-31T13:43:30.824Z,2.43
2018-01-31T13:46:09.976Z,2.60
2018-01-31T13:48:49.227Z,1.33
2018-01-31T13:51:28.750Z,2.10
2018-01-31T13:54:07.767Z,1.80
2018-01-31T13:56:47.055Z,6.73
2018-01-31T13:59:36.976Z,1.90
2018-01-31T14:02:16.039Z,2.03
2018-01-31T14:04:55.592Z,3.10
2018-01-31T14:07:35.027Z,16.87
2018-01-31T14:10:14.164Z,1.63
2018-01-31T14:12:53.616Z,1.90
2018-01-31T14:15:32.739Z,6.37
2018-01-31T14:18:12.184Z,1.53
2018-01-31T14:20:51.398Z,1.00
2018-01-31T14:23:26.416Z,1.63
2018-01-31T14:26:05.676Z,1.23
2018-01-31T14:28:44.879Z,2.23
2018-01-31T14:31:24.193Z,1.00
2018-01-31T14:34:16.388Z,1.53
2018-01-31T14:36:43.341Z,0.90
2018-01-31T14:39:10.283Z,1.47
2018-01-31T14:41:37.340Z,1.03
2018-01-31T14:44:04.346Z,1.97
2018-01-31T14:46:31.283Z,1.00
2018-01-31T14:48:58.228Z,3.93
2018-01-31T14:51:25.272Z,1.13
2018-01-31T14:53:52.211Z,1.30
2018-01-31T14:56:19.189Z,0.90
2018-01-31T14:58:46.148Z,1.10
2018-01-31T15:01:13.133Z,3.70
2018-01-31T15:03:40.078Z,3.23
2018-01-31T15:06:07.020Z,2.53
2018-01-31T15:08:34.137Z,1.67
2018-01-31T15:11:01.084Z,1.10
2018-01-31T15:13:28.044Z,3.47
2018-01-31T15:15:54.993Z,1.90
2018-01-31T15:18:21.952Z,1.50
2018-01-31T15:20:48.899Z,4.20
2018-01-31T15:23:16.629Z,1.33
2018-01-31T15:25:43.581Z,2.83
2018-01-31T15:28:10.728Z,2.13
2018-01-31T15:30:37.688Z,5.07
2018-01-31T15:33:04.720Z,1.00
2018-01-31T15:35:31.884Z,2.40
2018-01-31T15:37:59.032Z,0.90
2018-01-31T15:40:25.980Z,1.13
2018-01-31T15:42:52.945Z,4.13
2018-01-31T15:45:19.916Z,0.80
2018-01-31T15:47:46.859Z,1.70
2018-01-31T15:50:14.780Z,4.20
2018-01-31T15:52:41.932Z,4.00
2018-01-31T15:55:09.079Z,3.30
2018-01-31T15:57:36.044Z,3.10
2018-01-31T16:00:02.988Z,3.37
2018-01-31T16:02:29.964Z,3.23
2018-01-31T16:04:57.064Z,3.63
2018-01-31T16:07:24.029Z,3.73
2018-01-31T16:09:51.062Z,5.00
2018-01-31T16:12:18.204Z,2.53
2018-01-31T16:14:45.367Z,1.40
2018-01-31T16:17:13.009Z,2.70
2018-01-31T16:19:52.299Z,3.10
2018-01-31T16:22:19.740Z,4.47
2018-01-31T16:24:47.401Z,2.13
2018-01-31T16:27:22.932Z,8.73
2018-01-31T16:30:02.797Z,3.43
2018-01-31T16:32:41.893Z,3.10
2018-01-31T16:35:09.323Z,5.30
2018-01-31T16:37:36.900Z,2.60
2018-01-31T16:40:04.353Z,2.43
2018-01-31T16:42:31.812Z,3.50
2018-01-31T16:44:59.290Z,1.90
2018-01-31T16:47:26.760Z,3.10
2018-01-31T16:49:54.315Z,2.47
2018-01-31T16:52:21.775Z,2.60
2018-01-31T16:54:49.228Z,1.63
2018-01-31T16:57:16.667Z,13.07
2018-01-31T16:59:44.119Z,3.30
2018-01-31T17:02:11.553Z,2.97
2018-01-31T17:04:39.764Z,4.00
2018-01-31T17:07:07.444Z,4.47
2018-01-31T17:09:35.100Z,5.40
2018-01-31T17:12:02.568Z,1.03
2018-01-31T17:14:30.132Z,1.37
2018-01-31T17:16:57.758Z,4.57
2018-01-31T17:19:25.296Z,2.13
2018-01-31T17:21:52.813Z,2.20
2018-01-31T17:24:20.251Z,0.80
2018-01-31T17:26:47.692Z,1.17
2018-01-31T17:29:15.129Z,1.00
2018-01-31T17:31:43.323Z,2.00
2018-01-31T17:34:11.024Z,2.80
2018-01-31T17:36:38.780Z,1.70
2018-01-31T17:39:06.239Z,1.00
2018-01-31T17:41:33.730Z,3.73
2018-01-31T17:44:01.463Z,6.10
2018-01-31T17:46:28.931Z,1.20
2018-01-31T17:48:56.553Z,1.27
2018-01-31T17:51:23.987Z,10.03
2018-01-31T17:53:52.191Z,12.37
2018-01-31T17:56:19.629Z,8.03
2018-01-31T17:58:47.059Z,10.40
2018-01-31T18:01:15.468Z,2.50
2018-01-31T18:03:42.896Z,0.97
2018-01-31T18:06:10.349Z,17.80
2018-01-31T18:08:38.192Z,2.50
2018-01-31T18:11:05.840Z,2.23
2018-01-31T18:13:33.420Z,4.67
2018-01-31T18:16:01.064Z,3.60
2018-01-31T18:18:28.509Z,4.23
2018-01-31T18:20:56.095Z,7.03
2018-01-31T18:23:23.531Z,10.93
2018-01-31T18:25:50.976Z,1.87
2018-01-31T18:28:18.467Z,3.70
2018-01-31T18:30:45.911Z,2.07
2018-01-31T18:33:13.347Z,3.03
2018-01-31T18:35:40.801Z,1.53
2018-01-31T18:38:08.302Z,5.93
2018-01-31T18:40:35.749Z,3.13
2018-01-31T18:43:03.184Z,3.40
2018-01-31T18:45:30.628Z,3.63
2018-01-31T18:47:58.057Z,3.93
2018-01-31T18:50:25.504Z,3.53
2018-01-31T18:52:53.872Z,3.07
2018-01-31T18:55:21.428Z,7.03
2018-01-31T18:57:48.856Z,6.00
2018-01-31T19:00:16.344Z,2.73
2018-01-31T19:02:43.773Z,3.80
2018-01-31T19:05:11.212Z,2.90
2018-01-31T19:07:38.715Z,3.43
2018-01-31T19:10:06.151Z,5.17
2018-01-31T19:12:33.592Z,4.13
2018-01-31T19:15:01.098Z,4.43
2018-01-31T19:17:28.552Z,4.10
2018-01-31T19:19:56.104Z,1.93
2018-01-31T19:22:23.682Z,3.37
2018-01-31T19:24:51.120Z,2.70
2018-01-31T19:27:18.693Z,2.77
2018-01-31T19:29:46.325Z,7.60
2018-01-31T19:32:13.856Z,3.67
2018-01-31T19:34:41.288Z,1.73
2018-01-31T19:37:08.824Z,7.47
2018-01-31T19:39:36.268Z,3.33
2018-01-31T19:42:03.718Z,4.50
2018-01-31T19:44:31.207Z,2.23
2018-01-31T19:46:58.965Z,3.53
2018-01-31T19:49:26.733Z,5.73
2018-01-31T19:51:54.187Z,8.50
2018-01-31T19:54:21.639Z,2.60
2018-01-31T19:56:49.104Z,10.33
2018-01-31T19:59:16.540Z,2.20
2018-01-31T20:01:43.987Z,2.50
2018-01-31T20:04:11.425Z,5.60
2018-01-31T20:06:38.935Z,3.60
2018-01-31T20:09:06.439Z,3.33
2018-01-31T20:11:34.049Z,4.07
2018-01-31T20:14:01.491Z,2.80
2018-01-31T20:16:28.987Z,3.80
2018-01-31T20:18:56.435Z,6.67
2018-01-31T20:21:24.700Z,3.23
2018-01-31T20:23:52.240Z,2.50
2018-01-31T20:26:19.668Z,3.30
2018-01-31T20:28:47.871Z,4.40
2018-01-31T20:31:15.305Z,6.00
2018-01-31T20:33:42.817Z,4.03
2018-01-31T20:36:10.285Z,1.60
2018-01-31T20:38:38.221Z,6.20
2018-01-31T20:41:05.673Z,4.30
2018-01-31T20:43:33.268Z,9.20
2018-01-31T20:46:00.898Z,5.60
2018-01-31T20:48:28.484Z,3.10
2018-01-31T20:50:55.918Z,5.13
2018-01-31T20:53:23.373Z,5.70
2018-01-31T20:55:50.804Z,4.53
2018-01-31T20:58:18.248Z,4.97
2018-01-31T21:00:45.776Z,3.10
2018-01-31T21:03:13.228Z,3.53
2018-01-31T21:05:41.515Z,3.90
2018-01-31T21:08:08.963Z,2.73
2018-01-31T21:10:36.529Z,5.13
2018-01-31T21:13:04.294Z,7.47
2018-01-31T21:15:31.727Z,4.17
2018-01-31T21:17:59.216Z,5.03
2018-01-31T21:20:26.656Z,12.60
2018-01-31T21:22:54.126Z,8.83
2018-01-31T21:25:21.777Z,10.83
2018-01-31T21:27:49.352Z,6.57
2018-01-31T21:30:16.788Z,11.10
2018-01-31T21:32:44.268Z,6.17
2018-01-31T21:35:11.813Z,5.93
2018-01-31T21:37:39.392Z,6.13
2018-01-31T21:40:06.850Z,13.03
2018-01-31T21:42:34.408Z,6.40
2018-01-31T21:45:01.850Z,8.73
2018-01-31T21:47:29.284Z,5.33
2018-01-31T21:49:56.723Z,8.03
2018-01-31T21:52:24.232Z,4.70
2018-01-31T21:54:51.788Z,8.13
2018-01-31T21:57:19.233Z,2.90
2018-01-31T21:59:46.828Z,6.23
2018-01-31T22:02:14.264Z,4.13
2018-01-31T22:04:41.716Z,8.20
2018-01-31T22:07:09.470Z,8.70
2018-01-31T22:09:36.972Z,4.87
2018-01-31T22:12:04.417Z,6.23
2018-01-31T22:14:31.895Z,7.73
2018-01-31T22:16:59.324Z,4.27
2018-01-31T22:19:26.833Z,6.60
2018-01-31T22:21:54.276Z,2.73
2018-01-31T22:24:21.800Z,9.53
2018-01-31T22:26:49.437Z,2.60
2018-01-31T22:29:16.897Z,3.27
2018-01-31T22:31:44.326Z,3.97
2018-01-31T22:34:12.564Z,5.60
2018-01-31T22:36:40.009Z,10.77
2018-01-31T22:39:07.650Z,8.17
2018-01-31T22:41:35.241Z,11.93
2018-01-31T22:44:02.784Z,8.83
2018-01-31T22:46:30.360Z,3.90
2018-01-31T22:48:57.805Z,8.60
2018-01-31T22:51:25.380Z,6.43
2018-01-31T22:53:52.933Z,7.77
2018-01-31T22:56:20.469Z,5.80
2018-01-31T22:58:47.909Z,6.93
2018-01-31T23:01:16.124Z,6.70
2018-01-31T23:03:43.593Z,8.73
2018-01-31T23:06:11.049Z,6.17
2018-01-31T23:08:38.471Z,6.40
2018-01-31T23:11:05.925Z,8.73
2018-01-31T23:13:38.993Z,17.50
2018-01-31T23:16:06.604Z,8.53
2018-01-31T23:18:34.171Z,11.20
2018-01-31T23:21:01.624Z,12.53
2018-01-31T23:34:58.591Z,11.50
2018-01-31T23:37:26.045Z,13.67
2018-01-31T23:39:53.508Z,16.00
2018-01-31T23:42:20.960Z,9.03
2018-01-31T23:44:48.416Z,12.00
2018-01-31T23:47:15.876Z,18.83
2018-01-31T23:49:43.357Z,10.43
2018-01-31T23:52:11.105Z,11.80
2018-01-31T23:54:38.559Z,7.13
2018-01-31T23:57:06.323Z,9.33
2018-01-31T23:59:33.779Z,6.73
